Time;durP1;ratioP1;P1;durP2;ratioP2;P2;SDS_P1;SDS_P2;PMS_P1;PMS_P2;Temp;Humidity;BMP_temperature;BMP_pressure;BME280_temperature;BME280_humidity;BME280_pressure;Samples;Min_cycle;Max_cycle;Signal;HPM_P1;HPM_P2
2021/01/14 00:00:52;;;;;;;;;;;;;;;22.48;21.85;97040.09;5122523;28;649;-75
2021/01/14 00:03:17;;;;;;;;;;;;;;;22.06;22.45;97051.25;5122047;28;1075;-75
2021/01/14 00:05:43;;;;;;;;;;;;;;;22.22;22.38;97059.47;5122106;28;871;-74
2021/01/14 00:08:09;;;;;;;;;;;;;;;22.29;22.18;97050.69;5122395;28;806;-75
2021/01/14 00:10:36;;;;;;;;;;;;;;;22.40;22.08;97050.22;5122604;28;664;-75
2021/01/14 00:13:02;;;;;;;;;;;;;;;22.67;21.44;97046.53;5122260;28;696;-75
2021/01/14 00:15:27;;;;;;;;;;;;;;;22.09;22.33;97041.84;5122176;28;1962;-75
2021/01/14 00:17:53;;;;;;;;;;;;;;;22.56;21.88;97034.91;5122205;28;1036;-75
2021/01/14 00:20:19;;;;;;;;;;;;;;;22.58;21.60;97032.38;5121940;28;963;-75
2021/01/14 00:22:44;;;;;;;;;;;;;;;22.53;21.72;97041.53;5122019;28;860;-75
2021/01/14 00:25:10;;;;;;;;;;;;;;;21.88;22.37;97039.94;5122044;28;628;-75
2021/01/14 00:27:36;;;;;;;;;;;;;;;22.44;21.75;97027.38;5122010;28;589;-75
2021/01/14 00:30:02;;;;;;;;;;;;;;;22.74;21.41;97020.72;5122020;28;752;-75
2021/01/14 00:32:27;;;;;;;;;;;;;;;22.48;21.55;97022.31;5121924;28;688;-75
2021/01/14 00:34:53;;;;;;;;;;;;;;;22.28;21.86;97026.44;5121791;28;1968;-75
2021/01/14 00:40:02;;;;;;;;;;;;;;;21.89;22.10;97011.13;5121328;28;944;-74
2021/01/14 00:42:28;;;;;;;;;;;;;;;22.59;21.41;97005.63;5121691;28;597;-75
2021/01/14 00:44:53;;;;;;;;;;;;;;;22.39;21.71;97019.50;5121679;28;673;-75
2021/01/14 00:47:19;;;;;;;;;;;;;;;22.28;21.86;97020.78;5122007;28;693;-75
2021/01/14 00:49:44;;;;;;;;;;;;;;;21.87;22.24;97005.16;5121870;28;629;-75
2021/01/14 00:52:10;;;;;;;;;;;;;;;22.06;22.07;97008.78;5121196;28;1010;-75
2021/01/14 00:54:37;;;;;;;;;;;;;;;22.11;21.91;97016.66;5120832;28;1958;-75
2021/01/14 00:57:02;;;;;;;;;;;;;;;21.94;21.97;97018.22;5104115;28;900;-75
2021/01/14 00:59:28;;;;;;;;;;;;;;;22.20;21.92;97028.00;5120754;28;625;-75
2021/01/14 01:01:53;;;;;;;;;;;;;;;22.13;22.00;97016.22;5121187;28;698;-75
2021/01/14 01:04:19;;;;;;;;;;;;;;;21.77;22.35;97032.69;5121282;28;621;-75
2021/01/14 01:06:44;;;;;;;;;;;;;;;22.24;21.96;97030.69;5121203;28;625;-75
2021/01/14 01:09:10;;;;;;;;;;;;;;;22.19;21.76;97039.81;5120946;28;1041;-75
2021/01/14 01:11:35;;;;;;;;;;;;;;;22.43;21.52;97031.44;5103579;28;777;-75
2021/01/14 01:14:01;;;;;;;;;;;;;;;22.30;21.56;97035.25;5120986;28;1114;-76
2021/01/14 01:16:26;;;;;;;;;;;;;;;21.81;22.19;97038.16;5121003;28;1905;-74
2021/01/14 01:18:52;;;;;;;;;;;;;;;21.97;22.01;97045.63;5121473;28;665;-75
2021/01/14 01:21:20;;;;;;;;;;;;;;;22.87;20.98;97029.78;5121204;28;634;-75
2021/01/14 01:23:45;;;;;;;;;;;;;;;22.00;22.10;97027.66;5120961;28;1047;-75
2021/01/14 01:26:14;;;;;;;;;;;;;;;22.33;21.91;97034.31;5120485;28;930;-75
2021/01/14 01:28:40;;;;;;;;;;;;;;;22.19;21.75;97034.16;5103446;28;1071;-75
2021/01/14 01:31:05;;;;;;;;;;;;;;;21.96;22.23;97032.69;5120916;28;629;-75
2021/01/14 01:33:31;;;;;;;;;;;;;;;22.34;21.53;97018.88;5120825;28;589;-75
2021/01/14 01:35:56;;;;;;;;;;;;;;;22.12;22.11;97004.06;5120331;28;1901;-75
2021/01/14 01:38:22;;;;;;;;;;;;;;;22.01;22.13;97000.91;5120705;28;865;-75
2021/01/14 01:40:54;;;;;;;;;;;;;;;22.08;22.15;96994.94;5120625;28;1045;-75
2021/01/14 01:43:19;;;;;;;;;;;;;;;22.18;21.92;96996.53;5103506;28;685;-75
2021/01/14 01:45:45;;;;;;;;;;;;;;;22.35;21.77;96989.28;5120589;28;680;-75
2021/01/14 01:48:10;;;;;;;;;;;;;;;21.92;22.00;96986.75;5120871;28;594;-75
2021/01/14 01:50:36;;;;;;;;;;;;;;;22.24;21.48;96988.97;5102596;28;984;-74
2021/01/14 01:53:01;;;;;;;;;;;;;;;22.58;21.02;96981.34;5120608;28;900;-75
2021/01/14 01:55:27;;;;;;;;;;;;;;;21.76;22.09;96980.16;5120642;28;1985;-75
2021/01/14 01:57:53;;;;;;;;;;;;;;;22.06;21.83;96998.22;5102911;28;657;-75
2021/01/14 02:00:18;;;;;;;;;;;;;;;22.18;21.51;96988.03;5102817;28;649;-75
2021/01/14 02:02:44;;;;;;;;;;;;;;;22.22;21.44;96985.81;5120409;28;609;-75
2021/01/14 02:05:10;;;;;;;;;;;;;;;22.45;20.90;96989.25;5120172;28;1023;-75
2021/01/14 02:07:36;;;;;;;;;;;;;;;22.54;20.94;96997.75;5120042;28;896;-75
2021/01/14 02:10:03;;;;;;;;;;;;;;;22.31;21.30;96999.19;5120658;28;838;-75
2021/01/14 02:12:32;;;;;;;;;;;;;;;22.10;21.51;97000.91;5106081;28;872;-75
2021/01/14 02:14:58;;;;;;;;;;;;;;;22.39;21.30;96996.84;5124509;28;1984;-75
2021/01/14 02:17:24;;;;;;;;;;;;;;;22.24;21.58;97005.19;5107046;28;716;-75
2021/01/14 02:19:50;;;;;;;;;;;;;;;21.83;21.79;97008.16;5106585;28;991;-75
2021/01/14 02:22:18;;;;;;;;;;;;;;;22.39;20.92;96997.63;5124152;28;887;-75
2021/01/14 02:24:46;;;;;;;;;;;;;;;21.82;21.79;97000.91;5124308;28;1078;-75
2021/01/14 02:27:11;;;;;;;;;;;;;;;21.89;21.75;97004.69;5106777;28;673;-75
2021/01/14 02:29:37;;;;;;;;;;;;;;;22.29;21.10;97016.69;5124710;28;601;-75
2021/01/14 02:32:02;;;;;;;;;;;;;;;22.44;20.79;97004.69;5106568;28;589;-75
2021/01/14 02:34:28;;;;;;;;;;;;;;;22.34;21.20;97003.91;5123755;28;1901;-75
2021/01/14 02:36:53;;;;;;;;;;;;;;;22.14;21.32;96998.75;5123919;28;919;-75
2021/01/14 02:39:19;;;;;;;;;;;;;;;22.35;21.11;97003.44;5124087;28;1019;-75
2021/01/14 02:41:44;;;;;;;;;;;;;;;22.38;20.98;97009.41;5124428;28;649;-74
2021/01/14 02:44:10;;;;;;;;;;;;;;;22.11;21.27;97011.00;5124043;28;633;-75
2021/01/14 02:46:35;;;;;;;;;;;;;;;22.07;21.26;97010.34;5124247;28;681;-75
2021/01/14 02:49:08;;;;;;;;;;;;;;;22.24;20.91;97020.16;5106123;28;952;-75
2021/01/14 02:51:41;;;;;;;;;;;;;;;21.98;21.23;97019.66;5123687;28;915;-75
2021/01/14 02:54:07;;;;;;;;;;;;;;;21.99;21.48;97023.25;5123811;28;1128;-75
2021/01/14 02:56:32;;;;;;;;;;;;;;;22.62;20.75;97022.44;5106380;28;1976;-75
2021/01/14 02:58:58;;;;;;;;;;;;;;;22.34;20.98;97018.88;5124123;28;713;-75
2021/01/14 03:01:23;;;;;;;;;;;;;;;22.47;20.98;97023.56;5123684;28;661;-75
2021/01/14 03:03:49;;;;;;;;;;;;;;;22.34;21.04;97020.94;5123600;28;586;-75
2021/01/14 03:06:14;;;;;;;;;;;;;;;22.22;21.21;97031.16;5123435;28;968;-75
2021/01/14 03:08:40;;;;;;;;;;;;;;;22.42;20.81;97024.22;5123246;28;859;-75
2021/01/14 03:11:05;;;;;;;;;;;;;;;22.61;20.79;97037.09;5123457;28;1013;-75
2021/01/14 03:13:31;;;;;;;;;;;;;;;22.51;20.78;97038.38;5123421;28;648;-75
2021/01/14 03:15:56;;;;;;;;;;;;;;;22.15;21.21;97044.84;5123714;28;1906;-75
2021/01/14 03:18:24;;;;;;;;;;;;;;;22.00;21.48;97044.66;5123605;28;808;-75
2021/01/14 03:20:50;;;;;;;;;;;;;;;22.40;21.08;97032.41;5123034;28;975;-75
2021/01/14 03:23:18;;;;;;;;;;;;;;;22.16;21.54;97035.09;5122183;28;1000;-75
2021/01/14 03:25:47;;;;;;;;;;;;;;;22.53;20.91;97047.97;5123513;28;859;-75
2021/01/14 03:28:14;;;;;;;;;;;;;;;22.36;21.25;97033.34;5123081;28;793;-75
2021/01/14 03:30:39;;;;;;;;;;;;;;;22.03;21.76;97021.06;5123448;28;601;-75
2021/01/14 03:33:05;;;;;;;;;;;;;;;22.03;21.49;97026.72;5123023;28;630;-75
2021/01/14 03:35:30;;;;;;;;;;;;;;;22.55;20.89;97036.19;5122564;28;1902;-75
2021/01/14 03:37:56;;;;;;;;;;;;;;;22.36;21.24;97039.03;5122960;28;964;-75
2021/01/14 03:40:21;;;;;;;;;;;;;;;22.30;21.30;97032.41;5123079;28;975;-75
2021/01/14 03:42:47;;;;;;;;;;;;;;;22.49;21.23;97041.69;5123195;28;598;-75
2021/01/14 03:45:12;;;;;;;;;;;;;;;22.41;21.27;97039.66;5122804;28;593;-75
2021/01/14 03:47:38;;;;;;;;;;;;;;;22.72;20.90;97037.41;5122835;28;547;-75
2021/01/14 03:50:04;;;;;;;;;;;;;;;22.52;20.91;97042.78;5122756;28;1114;-75
2021/01/14 03:52:29;;;;;;;;;;;;;;;22.33;21.15;97045.66;5122646;28;873;-75
2021/01/14 03:54:55;;;;;;;;;;;;;;;22.53;21.22;97038.69;5122409;28;1968;-75
2021/01/14 03:57:20;;;;;;;;;;;;;;;22.18;21.56;97044.72;5122613;28;590;-75
2021/01/14 03:59:46;;;;;;;;;;;;;;;22.04;21.39;97050.97;5122722;28;664;-75
2021/01/14 04:02:11;;;;;;;;;;;;;;;22.02;21.74;97057.09;5122243;28;994;-75
2021/01/14 04:04:37;;;;;;;;;;;;;;;22.29;21.38;97042.19;5122090;28;890;-75
2021/01/14 04:07:09;;;;;;;;;;;;;;;22.16;21.63;97038.72;5122419;28;1012;-75
2021/01/14 04:09:35;;;;;;;;;;;;;;;22.31;21.26;97047.38;5122381;28;643;-75
2021/01/14 04:12:00;;;;;;;;;;;;;;;22.55;21.16;97039.00;5122467;28;629;-75
2021/01/14 04:14:26;;;;;;;;;;;;;;;22.19;21.62;97043.44;5122504;28;1975;-74
2021/01/14 04:16:51;;;;;;;;;;;;;;;22.11;21.68;97042.16;5121909;28;913;-75
2021/01/14 04:19:17;;;;;;;;;;;;;;;22.32;21.28;97046.88;5122220;28;808;-74
2021/01/14 04:21:42;;;;;;;;;;;;;;;22.16;21.44;97032.25;5122111;28;829;-75
2021/01/14 04:24:08;;;;;;;;;;;;;;;22.11;21.55;97033.66;5104280;28;901;-74
2021/01/14 04:26:33;;;;;;;;;;;;;;;22.07;21.86;97044.34;5122385;28;573;-75
2021/01/14 04:28:59;;;;;;;;;;;;;;;22.21;21.50;97043.75;5121978;28;609;-75
2021/01/14 04:31:24;;;;;;;;;;;;;;;22.41;21.06;97039.66;5121620;28;1016;-75
2021/01/14 04:33:50;;;;;;;;;;;;;;;22.53;21.35;97047.19;5121454;28;830;-74
2021/01/14 04:36:15;;;;;;;;;;;;;;;22.51;20.77;97046.88;5120858;28;1905;-75
2021/01/14 04:38:41;;;;;;;;;;;;;;;22.65;20.90;97048.28;5121829;28;665;-74
2021/01/14 04:41:06;;;;;;;;;;;;;;;22.31;21.47;97059.50;5122079;28;621;-74
2021/01/14 04:43:32;;;;;;;;;;;;;;;22.19;21.70;97068.16;5122150;28;577;-75
2021/01/14 04:46:04;;;;;;;;;;;;;;;22.44;21.08;97067.06;5103725;28;874;-74
2021/01/14 04:48:40;;;;;;;;;;;;;;;22.51;21.07;97070.34;5121264;28;872;-74
2021/01/14 04:51:09;;;;;;;;;;;;;;;22.69;20.79;97066.72;5121694;28;661;-74
2021/01/14 04:53:35;;;;;;;;;;;;;;;22.25;21.37;97061.38;5121751;28;670;-74
2021/01/14 04:56:02;;;;;;;;;;;;;;;22.97;20.49;97058.16;5121402;28;1910;-75
2021/01/14 04:58:27;;;;;;;;;;;;;;;22.59;21.00;97059.50;5121427;28;586;-74
2021/01/14 05:00:53;;;;;;;;;;;;;;;22.73;20.92;97066.53;5103793;28;856;-74
2021/01/14 05:03:22;;;;;;;;;;;;;;;22.66;20.94;97062.00;5121340;28;950;-75
2021/01/14 05:05:48;;;;;;;;;;;;;;;22.69;21.12;97063.88;5120532;28;980;-74
2021/01/14 05:08:14;;;;;;;;;;;;;;;22.73;21.17;97063.69;5121243;28;681;-75
2021/01/14 05:10:39;;;;;;;;;;;;;;;22.65;21.18;97065.31;5121172;28;625;-75
2021/01/14 05:13:05;;;;;;;;;;;;;;;22.53;21.44;97073.47;5120248;28;841;-75
2021/01/14 05:15:30;;;;;;;;;;;;;;;22.18;21.70;97084.38;5120668;28;1906;-75
2021/01/14 05:17:56;;;;;;;;;;;;;;;22.60;21.29;97083.75;5120956;28;997;-75
2021/01/14 05:20:22;;;;;;;;;;;;;;;22.40;21.66;97083.44;5120892;28;610;-75
2021/01/14 05:22:47;;;;;;;;;;;;;;;22.50;21.47;97076.50;5120903;28;729;-75
2021/01/14 05:25:13;;;;;;;;;;;;;;;22.88;20.97;97085.28;5121252;28;689;-75
2021/01/14 05:27:38;;;;;;;;;;;;;;;22.93;20.93;97074.56;5120474;28;881;-75
2021/01/14 05:30:07;;;;;;;;;;;;;;;22.30;21.59;97068.47;5120862;28;948;-74
2021/01/14 05:32:39;;;;;;;;;;;;;;;22.48;21.58;97070.50;5120729;28;1031;-75
2021/01/14 05:35:06;;;;;;;;;;;;;;;23.13;21.11;97077.66;5120584;28;1902;-75
2021/01/14 05:37:35;;;;;;;;;;;;;;;23.05;20.84;97076.41;5121139;28;664;-75
2021/01/14 05:40:01;;;;;;;;;;;;;;;22.99;21.03;97066.97;5120756;28;653;-75
2021/01/14 05:42:26;;;;;;;;;;;;;;;22.93;21.25;97063.22;5119950;28;669;-75
2021/01/14 05:44:52;;;;;;;;;;;;;;;22.88;21.23;97064.66;5119703;28;1000;-74
2021/01/14 05:47:24;;;;;;;;;;;;;;;22.83;21.22;97071.72;5119796;28;1206;-74
2021/01/14 05:49:56;;;;;;;;;;;;;;;22.77;21.55;97062.28;5120490;28;649;-75
2021/01/14 05:52:22;;;;;;;;;;;;;;;22.59;21.66;97062.31;5120462;28;684;-75
2021/01/14 05:54:48;;;;;;;;;;;;;;;22.34;21.95;97064.22;5120540;28;1980;-74
2021/01/14 05:57:15;;;;;;;;;;;;;;;22.55;21.38;97067.38;5142604;27;894;-86
2021/01/14 05:59:40;;;;;;;;;;;;;;;22.70;21.51;97062.63;5126299;28;1296;-85
2021/01/14 06:02:05;;;;;;;;;;;;;;;22.71;21.84;97063.41;5126322;28;1130;-85
2021/01/14 06:04:31;;;;;;;;;;;;;;;22.92;21.55;97067.31;5127791;28;1287;-86
2021/01/14 06:06:57;;;;;;;;;;;;;;;22.72;21.50;97068.59;5111048;28;1263;-86
2021/01/14 06:09:23;;;;;;;;;;;;;;;22.28;21.95;97068.94;5111480;28;1157;-85
2021/01/14 06:11:50;;;;;;;;;;;;;;;22.67;21.58;97063.56;5128220;28;741;-86
2021/01/14 06:14:35;;;;;;;;;;;;;;;23.16;21.17;97062.53;5127354;28;973;-86
2021/01/14 06:17:01;;;;;;;;;;;;;;;22.44;21.85;97067.06;5110297;28;1081;-85
2021/01/14 06:19:27;;;;;;;;;;;;;;;22.63;21.53;97065.75;5127731;28;1285;-86
2021/01/14 06:21:55;;;;;;;;;;;;;;;22.61;21.39;97071.13;5127982;28;1117;-86
2021/01/14 06:24:24;;;;;;;;;;;;;;;22.31;21.99;97076.50;5127113;28;1251;-85
2021/01/14 06:27:08;;;;;;;;;;;;;;;22.79;21.45;97076.75;5126199;28;1266;-84
2021/01/14 06:29:37;;;;;;;;;;;;;;;22.78;21.22;97075.19;5104164;28;1230;-85
2021/01/14 06:32:18;;;;;;;;;;;;;;;22.75;21.24;97086.72;5112165;28;1241;-85
2021/01/14 06:34:44;;;;;;;;;;;;;;;22.58;21.44;97086.25;5105565;28;1971;-85
2021/01/14 06:37:14;;;;;;;;;;;;;;;22.94;20.99;97081.81;5089619;28;1507;-85
2021/01/14 06:39:40;;;;;;;;;;;;;;;22.52;21.44;97085.31;5106294;28;617;-85
2021/01/14 06:42:16;;;;;;;;;;;;;;;21.96;22.12;97095.00;5090002;28;1166;-85
2021/01/14 06:44:46;;;;;;;;;;;;;;;22.54;21.34;97089.25;5088537;28;1185;-84
2021/01/14 06:47:11;;;;;;;;;;;;;;;22.14;21.85;97091.44;5105583;28;1101;-84
2021/01/14 06:49:37;;;;;;;;;;;;;;;22.32;21.88;97097.91;5105053;28;960;-85
2021/01/14 06:52:09;;;;;;;;;;;;;;;22.48;21.43;97101.69;5106077;28;881;-84
2021/01/14 06:54:37;;;;;;;;;;;;;;;23.00;21.05;97091.25;5088540;28;1902;-84
2021/01/14 06:57:12;;;;;;;;;;;;;;;22.34;21.98;97106.72;5089490;28;1258;-85
2021/01/14 06:59:38;;;;;;;;;;;;;;;23.00;21.18;97096.91;5091877;28;701;-85
2021/01/14 07:02:07;;;;;;;;;;;;;;;22.68;21.64;97093.47;5093039;28;1259;-84
2021/01/14 07:04:44;;;;;;;;;;;;;;;22.67;21.46;97100.41;5110374;28;1167;-85
2021/01/14 07:07:13;;;;;;;;;;;;;;;22.68;21.64;97098.38;5127065;28;947;-84
2021/01/14 07:09:38;;;;;;;;;;;;;;;22.83;21.54;97088.72;5126409;28;885;-84
2021/01/14 07:12:05;;;;;;;;;;;;;;;22.79;21.41;97093.78;5092638;28;1187;-85
2021/01/14 07:14:30;;;;;;;;;;;;;;;22.86;21.06;97090.63;5092086;28;1886;-84
2021/01/14 07:16:59;;;;;;;;;;;;;;;22.74;21.44;97096.47;5092880;28;625;-85
2021/01/14 07:19:25;;;;;;;;;;;;;;;22.90;21.26;97098.19;5091420;28;880;-85
2021/01/14 07:21:50;;;;;;;;;;;;;;;22.85;21.27;97086.22;5092496;28;1174;-84
2021/01/14 07:24:23;;;;;;;;;;;;;;;23.15;21.17;97097.81;5091308;28;887;-85
2021/01/14 07:26:52;;;;;;;;;;;;;;;22.93;21.26;97102.94;5092341;28;1307;-85
2021/01/14 07:29:18;;;;;;;;;;;;;;;23.05;21.07;97099.94;5091448;28;1272;-85
2021/01/14 07:31:50;;;;;;;;;;;;;;;22.69;21.69;97100.75;5109467;28;673;-84
2021/01/14 07:34:42;;;;;;;;;;;;;;;22.58;21.52;97100.41;5091573;28;1217;-85
2021/01/14 07:37:08;;;;;;;;;;;;;;;22.46;21.83;97090.03;5090077;28;1013;-84
2021/01/14 07:39:52;;;;;;;;;;;;;;;22.84;21.47;97101.66;5091075;28;992;-84
2021/01/14 07:42:18;;;;;;;;;;;;;;;22.96;20.93;97102.00;5109267;28;1133;-84
2021/01/14 07:44:47;;;;;;;;;;;;;;;22.30;22.29;97103.25;5107893;28;665;-84
2021/01/14 07:47:16;;;;;;;;;;;;;;;23.00;20.96;97096.91;5091801;28;1276;-84
2021/01/14 07:49:41;;;;;;;;;;;;;;;22.70;21.33;97096.66;5091161;28;1338;-84
2021/01/14 07:52:06;;;;;;;;;;;;;;;23.09;20.94;97099.75;5091840;28;1173;-85
2021/01/14 07:54:32;;;;;;;;;;;;;;;23.09;20.87;97099.75;5107296;28;1875;-84
2021/01/14 07:56:59;;;;;;;;;;;;;;;22.95;21.11;97108.91;5090990;28;1476;-84
2021/01/14 07:59:34;;;;;;;;;;;;;;;22.99;21.10;97098.97;5090685;28;1154;-84
2021/01/14 08:02:10;;;;;;;;;;;;;;;22.76;21.49;97105.31;5090906;28;1151;-84
2021/01/14 08:04:45;;;;;;;;;;;;;;;23.09;20.98;97108.25;5073849;28;1294;-85
2021/01/14 08:07:20;;;;;;;;;;;;;;;22.94;21.02;97110.19;5090901;28;1259;-85
2021/01/14 08:09:46;;;;;;;;;;;;;;;23.21;20.76;97115.81;5107938;28;720;-85
2021/01/14 08:12:11;;;;;;;;;;;;;;;22.76;21.29;97110.97;5074710;28;1262;-84
2021/01/14 08:14:38;;;;;;;;;;;;;;;23.02;20.93;97111.44;5107257;28;1976;-85
2021/01/14 08:17:39;;;;;;;;;;;;;;;22.75;21.13;97120.75;5090439;28;808;-84
2021/01/14 08:20:05;;;;;;;;;;;;;;;22.88;21.24;97107.97;5046033;28;1297;-85
2021/01/14 08:22:40;;;;;;;;;;;;;;;22.79;20.97;97116.47;5078288;28;1115;-85
2021/01/14 08:25:06;;;;;;;;;;;;;;;23.20;20.83;97122.72;5090145;28;911;-84
2021/01/14 08:27:32;;;;;;;;;;;;;;;22.68;21.25;97118.22;5090027;28;1135;-84
2021/01/14 08:30:07;;;;;;;;;;;;;;;22.98;20.92;97110.81;5089563;28;890;-84
2021/01/14 08:32:37;;;;;;;;;;;;;;;23.04;20.96;97108.91;5127075;27;1079;-85
2021/01/14 08:35:03;;;;;;;;;;;;;;;23.07;20.81;97114.41;5106714;28;1971;-84
2021/01/14 08:37:29;;;;;;;;;;;;;;;22.78;21.52;97125.47;5117706;28;1205;-84
2021/01/14 08:39:57;;;;;;;;;;;;;;;22.85;21.38;97136.50;5090594;28;1160;-84
2021/01/14 08:42:29;;;;;;;;;;;;;;;22.84;21.34;97130.00;5109799;28;1194;-84
2021/01/14 08:44:54;;;;;;;;;;;;;;;22.83;21.33;97128.44;5106453;28;1333;-84
2021/01/14 08:47:19;;;;;;;;;;;;;;;22.42;21.86;97134.75;5072697;28;1167;-84
2021/01/14 08:49:45;;;;;;;;;;;;;;;22.57;21.51;97127.19;5106554;28;738;-84
2021/01/14 08:52:10;;;;;;;;;;;;;;;23.23;21.07;97124.63;5107422;28;692;-84
2021/01/14 08:54:41;;;;;;;;;;;;;;;23.34;20.67;97122.06;5085117;28;1902;-84
2021/01/14 08:57:06;;;;;;;;;;;;;;;23.27;21.00;97125.25;5069356;28;1266;-84
2021/01/14 08:59:32;;;;;;;;;;;;;;;22.83;21.50;97117.09;5086226;28;1193;-84
2021/01/14 09:01:57;;;;;;;;;;;;;;;22.82;21.35;97109.84;5103189;28;1138;-84
2021/01/14 09:04:25;;;;;;;;;;;;;;;23.09;21.06;97111.09;5085636;28;1379;-84
2021/01/14 09:06:50;;;;;;;;;;;;;;;23.02;21.14;97108.59;5069334;28;1154;-84
2021/01/14 09:09:16;;;;;;;;;;;;;;;23.22;20.88;97120.22;5085645;28;1482;-84
2021/01/14 09:11:42;;;;;;;;;;;;;;;23.16;20.79;97121.31;5085721;28;825;-84
2021/01/14 09:14:18;;;;;;;;;;;;;;;23.05;20.97;97110.47;5086205;28;928;-85
2021/01/14 09:16:45;;;;;;;;;;;;;;;23.40;20.63;97120.13;5085424;28;1914;-84
2021/01/14 09:19:11;;;;;;;;;;;;;;;23.06;21.32;97112.84;5102773;28;721;-84
2021/01/14 09:21:36;;;;;;;;;;;;;;;22.96;21.11;97119.81;5102234;28;908;-84
2021/01/14 09:24:08;;;;;;;;;;;;;;;23.06;21.13;97106.38;5102659;28;1054;-84
2021/01/14 09:26:34;;;;;;;;;;;;;;;23.07;21.20;97108.75;5086814;28;914;-84
2021/01/14 09:28:59;;;;;;;;;;;;;;;23.38;20.69;97102.81;5085737;28;1162;-84
2021/01/14 09:31:28;;;;;;;;;;;;;;;23.16;21.06;97105.09;5086492;28;1279;-84
2021/01/14 09:33:53;;;;;;;;;;;;;;;23.31;21.00;97094.66;5102279;28;808;-84
2021/01/14 09:36:19;;;;;;;;;;;;;;;23.45;20.85;97098.03;5086284;28;1906;-84
2021/01/14 09:38:52;;;;;;;;;;;;;;;22.55;21.92;97095.72;5085351;28;884;-84
2021/01/14 09:41:28;;;;;;;;;;;;;;;22.85;21.67;97097.56;5085678;28;919;-84
2021/01/14 09:43:55;;;;;;;;;;;;;;;22.55;22.07;97101.38;5102419;28;741;-84
2021/01/14 09:46:21;;;;;;;;;;;;;;;23.04;21.56;97094.72;5085155;28;986;-84
2021/01/14 09:48:47;;;;;;;;;;;;;;;23.00;21.49;97088.41;5102462;28;804;-84
2021/01/14 09:51:12;;;;;;;;;;;;;;;22.88;21.73;97085.28;5103044;28;653;-84
2021/01/14 09:53:45;;;;;;;;;;;;;;;22.30;22.31;97097.59;5101451;28;1042;-84
2021/01/14 09:56:30;;;;;;;;;;;;;;;23.16;21.60;97071.03;5106118;28;2026;-84
2021/01/14 09:58:57;;;;;;;;;;;;;;;23.09;21.15;97069.31;5098315;28;1151;-84
2021/01/14 10:01:24;;;;;;;;;;;;;;;22.55;22.07;97070.19;5088491;28;1163;-84
2021/01/14 10:03:50;;;;;;;;;;;;;;;22.47;22.48;97072.56;5105275;28;771;-85
2021/01/14 10:06:16;;;;;;;;;;;;;;;22.40;22.57;97057.91;5072579;28;1169;-84
2021/01/14 10:08:46;;;;;;;;;;;;;;;22.63;22.06;97054.41;5105542;28;959;-84
2021/01/14 10:11:11;;;;;;;;;;;;;;;22.93;21.81;97049.81;5089367;28;825;-84
2021/01/14 10:13:46;;;;;;;;;;;;;;;22.55;22.26;97051.13;5090979;28;1279;-84
2021/01/14 10:16:11;;;;;;;;;;;;;;;22.53;22.41;97047.19;5108999;28;1971;-84
2021/01/14 10:18:37;;;;;;;;;;;;;;;22.32;22.37;97043.28;5122500;28;1327;-83
2021/01/14 10:21:03;;;;;;;;;;;;;;;22.76;22.15;97040.06;5143083;27;950;-84
2021/01/14 10:23:29;;;;;;;;;;;;;;;22.42;22.48;97038.38;5142320;28;887;-85
2021/01/14 10:25:55;;;;;;;;;;;;;;;22.42;22.56;97042.00;5143457;27;1242;-84
2021/01/14 10:28:21;;;;;;;;;;;;;;;23.03;21.79;97037.19;5108358;28;1209;-84
2021/01/14 10:30:46;;;;;;;;;;;;;;;22.94;22.18;97030.75;5143273;27;629;-84
2021/01/14 10:33:12;;;;;;;;;;;;;;;22.74;22.34;97029.22;5111459;28;1427;-84
2021/01/14 10:35:37;;;;;;;;;;;;;;;22.44;22.59;97021.72;5109037;28;1898;-84
2021/01/14 10:38:07;;;;;;;;;;;;;;;22.77;22.13;97011.22;5135936;27;1051;-84
2021/01/14 10:40:33;;;;;;;;;;;;;;;23.01;21.70;97016.25;5109699;28;887;-84
2021/01/14 10:43:01;;;;;;;;;;;;;;;23.32;21.35;97010.28;5109420;28;636;-84
2021/01/14 10:45:26;;;;;;;;;;;;;;;23.04;21.89;97001.88;5109327;28;1186;-84
2021/01/14 10:48:03;;;;;;;;;;;;;;;22.71;22.11;97001.78;5108275;28;721;-84
2021/01/14 10:50:29;;;;;;;;;;;;;;;22.53;22.39;96987.66;5125489;28;874;-84
2021/01/14 10:53:04;;;;;;;;;;;;;;;22.53;22.35;96999.00;5131532;27;1233;-84
2021/01/14 10:55:30;;;;;;;;;;;;;;;22.03;22.86;96989.91;5091710;28;1964;-84
2021/01/14 10:57:55;;;;;;;;;;;;;;;22.31;22.78;96980.13;5090996;28;867;-82
2021/01/14 11:00:22;;;;;;;;;;;;;;;22.09;22.83;96977.47;5094313;28;1250;-84
2021/01/14 11:02:48;;;;;;;;;;;;;;;22.01;22.77;96969.75;5095141;28;1162;-84
2021/01/14 11:05:14;;;;;;;;;;;;;;;21.79;23.15;96967.84;5110923;28;1050;-84
2021/01/14 11:07:39;;;;;;;;;;;;;;;21.83;22.87;96974.16;5095214;28;952;-84
2021/01/14 11:10:08;;;;;;;;;;;;;;;21.71;23.10;96957.31;5111261;28;1118;-83
2021/01/14 11:12:34;;;;;;;;;;;;;;;22.07;22.54;96953.69;5092166;28;1293;-85
2021/01/14 11:14:59;;;;;;;;;;;;;;;22.21;22.52;96952.28;5141207;27;1905;-84
2021/01/14 11:17:25;;;;;;;;;;;;;;;22.26;22.54;96949.59;5130494;27;1145;-84
2021/01/14 11:19:51;;;;;;;;;;;;;;;22.08;22.46;96946.78;5108342;28;1158;-84
2021/01/14 11:22:16;;;;;;;;;;;;;;;22.21;22.42;96950.25;5115991;28;1281;-84
2021/01/14 11:24:42;;;;;;;;;;;;;;;21.76;22.98;96940.50;5128772;28;871;-84
2021/01/14 11:27:07;;;;;;;;;;;;;;;21.64;22.94;96941.44;5129872;28;1233;-84
2021/01/14 11:29:33;;;;;;;;;;;;;;;21.98;22.91;96933.88;5111400;28;1154;-84
2021/01/14 11:31:59;;;;;;;;;;;;;;;21.89;22.74;96933.88;5114017;28;1162;-84
2021/01/14 11:34:25;;;;;;;;;;;;;;;21.96;22.69;96927.88;5128151;28;1163;-83
2021/01/14 11:36:50;;;;;;;;;;;;;;;22.03;22.36;96930.41;5128949;28;1906;-84
2021/01/14 11:39:16;;;;;;;;;;;;;;;22.09;22.46;96934.97;5145914;27;744;-84
2021/01/14 11:41:41;;;;;;;;;;;;;;;21.69;22.64;96926.66;5146464;27;695;-84
2021/01/14 11:44:07;;;;;;;;;;;;;;;21.40;23.12;96912.16;5144524;27;797;-84
2021/01/14 11:46:33;;;;;;;;;;;;;;;21.73;23.01;96913.13;5128805;28;888;-84
2021/01/14 11:48:58;;;;;;;;;;;;;;;21.87;22.74;96900.38;5127834;28;833;-84
2021/01/14 11:51:24;;;;;;;;;;;;;;;21.96;22.64;96896.75;5111815;28;1282;-84
2021/01/14 11:53:49;;;;;;;;;;;;;;;22.19;22.18;96898.94;5128422;28;1018;-84
2021/01/14 11:56:15;;;;;;;;;;;;;;;22.19;22.57;96898.16;5112777;28;1897;-84
2021/01/14 11:58:41;;;;;;;;;;;;;;;22.04;22.48;96892.34;5127995;28;800;-84
2021/01/14 12:01:06;;;;;;;;;;;;;;;21.69;22.98;96887.00;5145989;27;995;-84
2021/01/14 12:03:33;;;;;;;;;;;;;;;21.40;23.41;96881.03;5128028;28;1188;-84
2021/01/14 12:05:58;;;;;;;;;;;;;;;21.91;22.78;96888.88;5129153;28;594;-84
2021/01/14 12:08:24;;;;;;;;;;;;;;;21.96;22.88;96879.75;5144216;27;597;-85
2021/01/14 12:10:50;;;;;;;;;;;;;;;22.77;21.92;96883.63;5145801;27;649;-83
2021/01/14 12:13:16;;;;;;;;;;;;;;;22.66;22.11;96874.06;5143594;27;943;-80
2021/01/14 12:15:41;;;;;;;;;;;;;;;22.25;22.71;96880.03;5127737;28;1894;-87
2021/01/14 12:18:06;;;;;;;;;;;;;;;22.36;22.65;96868.97;5144897;27;871;-83
2021/01/14 12:20:32;;;;;;;;;;;;;;;22.22;22.64;96866.81;5127081;27;1200;-80
2021/01/14 12:22:57;;;;;;;;;;;;;;;22.22;23.07;96863.97;5102040;28;656;-67
2021/01/14 12:25:23;;;;;;;;;;;;;;;22.29;23.58;96860.81;5108574;28;1023;-87
2021/01/14 12:27:52;;;;;;;;;;;;;;;22.34;23.24;96848.84;5110884;28;1297;-88
2021/01/14 12:30:21;;;;;;;;;;;;;;;21.88;24.21;96847.38;5107173;28;1183;-74
2021/01/14 12:32:46;;;;;;;;;;;;;;;22.26;23.66;96844.75;5127123;28;636;-88
2021/01/14 12:35:19;;;;;;;;;;;;;;;21.81;24.47;96840.78;5125495;28;1897;-81
2021/01/14 12:37:44;;;;;;;;;;;;;;;22.62;23.57;96845.88;5126805;28;725;-84
2021/01/14 12:40:10;;;;;;;;;;;;;;;22.33;23.88;96838.78;5126424;28;977;-85
2021/01/14 12:42:35;;;;;;;;;;;;;;;22.75;23.24;96837.94;5128526;28;954;-85
2021/01/14 12:45:01;;;;;;;;;;;;;;;23.22;22.52;96842.09;5126042;28;915;-85
2021/01/14 12:47:26;;;;;;;;;;;;;;;22.68;23.57;96835.44;5125295;28;1075;-85
2021/01/14 12:49:52;;;;;;;;;;;;;;;23.17;22.99;96822.91;5073733;28;1325;-86
2021/01/14 12:52:17;;;;;;;;;;;;;;;23.39;22.70;96820.50;5141502;27;677;-68
2021/01/14 12:54:43;;;;;;;;;;;;;;;23.64;22.24;96824.13;5124747;28;1906;-84
2021/01/14 12:57:08;;;;;;;;;;;;;;;23.20;23.05;96810.56;5142596;27;1008;-84
2021/01/14 12:59:34;;;;;;;;;;;;;;;23.57;22.33;96821.59;5140480;27;981;-79
2021/01/14 13:01:59;;;;;;;;;;;;;;;22.97;23.15;96819.88;5105951;28;674;-83
2021/01/14 13:04:25;;;;;;;;;;;;;;;23.51;22.66;96818.66;5138871;27;1353;-83